sensor_id;sensor_type;location;lat;lon;timestamp;temperature;humidity
5280;DHT22;2663;53.588;10.010;2022-09-09T00:00:15;16.10;99.90
5280;DHT22;2663;53.588;10.010;2022-09-09T00:03:02;16.10;99.90
5280;DHT22;2663;53.588;10.010;2022-09-09T00:05:39;16.10;99.90
5280;DHT22;2663;53.588;10.010;2022-09-09T00:08:15;16.10;99.90
5280;DHT22;2663;53.588;10.010;2022-09-09T00:10:48;16.10;99.90
5280;DHT22;2663;53.588;10.010;2022-09-09T00:13:38;16.20;99.90
5280;DHT22;2663;53.588;10.010;2022-09-09T00:16:19;16.20;99.90
5280;DHT22;2663;53.588;10.010;2022-09-09T00:30:16;16.40;99.90
5280;DHT22;2663;53.588;10.010;2022-09-09T00:32:47;16.40;99.90
5280;DHT22;2663;53.588;10.010;2022-09-09T00:37:42;16.50;99.90
5280;DHT22;2663;53.588;10.010;2022-09-09T00:42:45;16.60;99.90
5280;DHT22;2663;53.588;10.010;2022-09-09T00:45:41;16.60;99.90
5280;DHT22;2663;53.588;10.010;2022-09-09T00:48:12;16.60;99.90
5280;DHT22;2663;53.588;10.010;2022-09-09T00:50:57;16.70;99.90
5280;DHT22;2663;53.588;10.010;2022-09-09T00:54:01;16.70;99.90
5280;DHT22;2663;53.588;10.010;2022-09-09T00:56:39;16.70;99.90
5280;DHT22;2663;53.588;10.010;2022-09-09T00:59:32;16.70;99.90
5280;DHT22;2663;53.588;10.010;2022-09-09T01:02:11;16.80;99.90
5280;DHT22;2663;53.588;10.010;2022-09-09T01:04:40;16.80;99.90
5280;DHT22;2663;53.588;10.010;2022-09-09T01:07:18;16.70;99.90
5280;DHT22;2663;53.588;10.010;2022-09-09T01:09:50;16.80;99.90
5280;DHT22;2663;53.588;10.010;2022-09-09T01:12:40;16.80;99.90
5280;DHT22;2663;53.588;10.010;2022-09-09T01:15:09;16.80;99.90
5280;DHT22;2663;53.588;10.010;2022-09-09T01:18:00;16.80;99.90
5280;DHT22;2663;53.588;10.010;2022-09-09T01:20:55;16.80;99.90
5280;DHT22;2663;53.588;10.010;2022-09-09T01:23:40;16.80;99.90
5280;DHT22;2663;53.588;10.010;2022-09-09T01:26:18;16.80;99.90
5280;DHT22;2663;53.588;10.010;2022-09-09T01:28:48;16.80;99.90
5280;DHT22;2663;53.588;10.010;2022-09-09T01:31:37;16.80;99.90
5280;DHT22;2663;53.588;10.010;2022-09-09T01:34:13;16.80;99.90
5280;DHT22;2663;53.588;10.010;2022-09-09T01:36:48;16.70;99.90
5280;DHT22;2663;53.588;10.010;2022-09-09T01:39:20;16.70;99.90
5280;DHT22;2663;53.588;10.010;2022-09-09T01:41:47;16.70;99.90
5280;DHT22;2663;53.588;10.010;2022-09-09T01:44:14;16.60;99.90
5280;DHT22;2663;53.588;10.010;2022-09-09T01:46:41;16.70;99.90
5280;DHT22;2663;53.588;10.010;2022-09-09T01:49:08;16.60;99.90
5280;DHT22;2663;53.588;10.010;2022-09-09T01:51:36;16.60;99.90
5280;DHT22;2663;53.588;10.010;2022-09-09T01:54:05;16.60;99.90
5280;DHT22;2663;53.588;10.010;2022-09-09T01:56:40;16.60;99.90
5280;DHT22;2663;53.588;10.010;2022-09-09T02:04:52;16.50;99.90
5280;DHT22;2663;53.588;10.010;2022-09-09T02:10:24;16.60;99.90
5280;DHT22;2663;53.588;10.010;2022-09-09T02:13:12;16.50;99.90
5280;DHT22;2663;53.588;10.010;2022-09-09T02:15:52;16.70;99.90
5280;DHT22;2663;53.588;10.010;2022-09-09T02:18:30;16.70;99.90
5280;DHT22;2663;53.588;10.010;2022-09-09T02:20:59;16.70;99.90
5280;DHT22;2663;53.588;10.010;2022-09-09T02:23:26;16.60;99.90
5280;DHT22;2663;53.588;10.010;2022-09-09T02:25:56;16.60;99.90
5280;DHT22;2663;53.588;10.010;2022-09-09T02:28:26;16.50;99.90
5280;DHT22;2663;53.588;10.010;2022-09-09T02:30:55;16.40;99.90
5280;DHT22;2663;53.588;10.010;2022-09-09T02:33:25;16.40;99.90
5280;DHT22;2663;53.588;10.010;2022-09-09T02:35:54;16.40;99.90
5280;DHT22;2663;53.588;10.010;2022-09-09T02:38:25;16.30;99.90
5280;DHT22;2663;53.588;10.010;2022-09-09T02:40:53;16.30;99.90
5280;DHT22;2663;53.588;10.010;2022-09-09T02:43:19;16.30;99.90
5280;DHT22;2663;53.588;10.010;2022-09-09T02:48:36;16.20;99.90
5280;DHT22;2663;53.588;10.010;2022-09-09T02:51:08;16.20;99.90
5280;DHT22;2663;53.588;10.010;2022-09-09T02:56:23;16.20;99.90
5280;DHT22;2663;53.588;10.010;2022-09-09T02:58:52;16.20;99.90
5280;DHT22;2663;53.588;10.010;2022-09-09T03:01:18;16.20;99.90
5280;DHT22;2663;53.588;10.010;2022-09-09T03:03:45;16.20;99.90
5280;DHT22;2663;53.588;10.010;2022-09-09T03:06:12;16.20;99.90
5280;DHT22;2663;53.588;10.010;2022-09-09T03:08:40;16.20;99.90
5280;DHT22;2663;53.588;10.010;2022-09-09T03:11:16;16.20;99.90
5280;DHT22;2663;53.588;10.010;2022-09-09T03:13:43;16.10;99.90
5280;DHT22;2663;53.588;10.010;2022-09-09T03:16:10;16.10;99.90
5280;DHT22;2663;53.588;10.010;2022-09-09T03:18:36;16.10;99.90
5280;DHT22;2663;53.588;10.010;2022-09-09T03:21:03;16.10;99.90
5280;DHT22;2663;53.588;10.010;2022-09-09T03:23:30;16.10;99.90
5280;DHT22;2663;53.588;10.010;2022-09-09T03:25:57;16.10;99.90
5280;DHT22;2663;53.588;10.010;2022-09-09T03:28:25;16.10;99.90
5280;DHT22;2663;53.588;10.010;2022-09-09T03:31:05;16.10;99.90
5280;DHT22;2663;53.588;10.010;2022-09-09T03:33:32;16.10;99.90
5280;DHT22;2663;53.588;10.010;2022-09-09T03:35:59;16.10;99.90
5280;DHT22;2663;53.588;10.010;2022-09-09T03:38:26;16.00;99.90
5280;DHT22;2663;53.588;10.010;2022-09-09T03:40:54;16.00;99.90
5280;DHT22;2663;53.588;10.010;2022-09-09T03:43:25;15.90;99.90
5280;DHT22;2663;53.588;10.010;2022-09-09T03:45:52;15.90;99.90
5280;DHT22;2663;53.588;10.010;2022-09-09T03:48:19;15.90;99.90
5280;DHT22;2663;53.588;10.010;2022-09-09T03:50:46;15.90;99.90
5280;DHT22;2663;53.588;10.010;2022-09-09T03:53:14;15.90;99.90
5280;DHT22;2663;53.588;10.010;2022-09-09T03:55:49;15.90;99.90
5280;DHT22;2663;53.588;10.010;2022-09-09T03:58:16;15.90;99.90
5280;DHT22;2663;53.588;10.010;2022-09-09T04:00:57;15.90;99.90
5280;DHT22;2663;53.588;10.010;2022-09-09T04:03:25;15.90;99.90
5280;DHT22;2663;53.588;10.010;2022-09-09T04:05:54;15.90;99.90
5280;DHT22;2663;53.588;10.010;2022-09-09T04:08:22;15.80;99.90
5280;DHT22;2663;53.588;10.010;2022-09-09T04:10:52;15.90;99.90
5280;DHT22;2663;53.588;10.010;2022-09-09T04:13:19;15.80;99.90
5280;DHT22;2663;53.588;10.010;2022-09-09T04:15:58;15.40;99.90
5280;DHT22;2663;53.588;10.010;2022-09-09T04:18:26;15.80;99.90
5280;DHT22;2663;53.588;10.010;2022-09-09T04:20:54;15.80;99.90
5280;DHT22;2663;53.588;10.010;2022-09-09T04:23:25;15.80;99.90
5280;DHT22;2663;53.588;10.010;2022-09-09T04:25:53;15.80;99.90
5280;DHT22;2663;53.588;10.010;2022-09-09T04:28:22;15.80;99.90
5280;DHT22;2663;53.588;10.010;2022-09-09T04:30:50;15.70;99.90
5280;DHT22;2663;53.588;10.010;2022-09-09T04:33:17;15.80;99.90
5280;DHT22;2663;53.588;10.010;2022-09-09T04:35:48;15.70;99.90
5280;DHT22;2663;53.588;10.010;2022-09-09T04:38:17;15.70;99.90
5280;DHT22;2663;53.588;10.010;2022-09-09T04:40:46;15.70;99.90
5280;DHT22;2663;53.588;10.010;2022-09-09T04:43:14;15.70;99.90
5280;DHT22;2663;53.588;10.010;2022-09-09T04:45:46;15.70;99.90
5280;DHT22;2663;53.588;10.010;2022-09-09T04:48:13;15.70;99.90
5280;DHT22;2663;53.588;10.010;2022-09-09T04:50:40;15.80;99.90
5280;DHT22;2663;53.588;10.010;2022-09-09T04:53:07;15.80;99.90
5280;DHT22;2663;53.588;10.010;2022-09-09T04:55:35;15.80;99.90
5280;DHT22;2663;53.588;10.010;2022-09-09T04:58:05;15.80;99.90
5280;DHT22;2663;53.588;10.010;2022-09-09T05:00:34;15.80;99.90
5280;DHT22;2663;53.588;10.010;2022-09-09T05:03:03;15.90;99.90
5280;DHT22;2663;53.588;10.010;2022-09-09T05:05:34;15.90;99.90
5280;DHT22;2663;53.588;10.010;2022-09-09T05:08:05;15.90;99.90
5280;DHT22;2663;53.588;10.010;2022-09-09T05:10:33;15.90;99.90
5280;DHT22;2663;53.588;10.010;2022-09-09T05:13:00;15.90;99.90
5280;DHT22;2663;53.588;10.010;2022-09-09T05:15:26;15.90;99.90
5280;DHT22;2663;53.588;10.010;2022-09-09T05:18:00;15.90;99.90
5280;DHT22;2663;53.588;10.010;2022-09-09T05:20:27;15.90;99.90
5280;DHT22;2663;53.588;10.010;2022-09-09T05:22:55;15.90;99.90
5280;DHT22;2663;53.588;10.010;2022-09-09T05:25:23;15.90;99.90
5280;DHT22;2663;53.588;10.010;2022-09-09T05:27:52;15.90;99.90
5280;DHT22;2663;53.588;10.010;2022-09-09T05:30:20;15.90;99.90
5280;DHT22;2663;53.588;10.010;2022-09-09T05:32:49;15.90;99.90
5280;DHT22;2663;53.588;10.010;2022-09-09T05:35:16;15.90;99.90
5280;DHT22;2663;53.588;10.010;2022-09-09T05:37:45;15.90;99.90
5280;DHT22;2663;53.588;10.010;2022-09-09T05:40:12;15.90;99.90
5280;DHT22;2663;53.588;10.010;2022-09-09T05:42:39;15.50;99.90
5280;DHT22;2663;53.588;10.010;2022-09-09T05:45:07;16.00;99.90
5280;DHT22;2663;53.588;10.010;2022-09-09T05:47:35;16.00;99.90
5280;DHT22;2663;53.588;10.010;2022-09-09T05:50:04;16.00;99.90
5280;DHT22;2663;53.588;10.010;2022-09-09T05:52:31;16.00;99.90
5280;DHT22;2663;53.588;10.010;2022-09-09T05:54:58;16.10;99.90
5280;DHT22;2663;53.588;10.010;2022-09-09T05:57:26;16.10;99.90
5280;DHT22;2663;53.588;10.010;2022-09-09T05:59:52;16.20;99.90
5280;DHT22;2663;53.588;10.010;2022-09-09T06:02:20;16.20;99.90
5280;DHT22;2663;53.588;10.010;2022-09-09T06:04:46;16.20;99.90
5280;DHT22;2663;53.588;10.010;2022-09-09T06:07:13;16.30;99.90
5280;DHT22;2663;53.588;10.010;2022-09-09T06:09:40;16.30;99.90
5280;DHT22;2663;53.588;10.010;2022-09-09T06:12:07;16.40;99.90
5280;DHT22;2663;53.588;10.010;2022-09-09T06:14:34;16.40;99.90
5280;DHT22;2663;53.588;10.010;2022-09-09T06:17:01;16.50;99.90
5280;DHT22;2663;53.588;10.010;2022-09-09T06:19:28;16.50;99.90
5280;DHT22;2663;53.588;10.010;2022-09-09T06:21:56;16.60;99.90
5280;DHT22;2663;53.588;10.010;2022-09-09T06:24:23;16.50;99.90
5280;DHT22;2663;53.588;10.010;2022-09-09T06:26:50;16.50;99.90
5280;DHT22;2663;53.588;10.010;2022-09-09T06:29:16;16.50;99.90
5280;DHT22;2663;53.588;10.010;2022-09-09T06:31:43;16.50;99.90
5280;DHT22;2663;53.588;10.010;2022-09-09T06:34:10;16.50;99.90
5280;DHT22;2663;53.588;10.010;2022-09-09T06:36:38;16.50;99.90
5280;DHT22;2663;53.588;10.010;2022-09-09T06:39:06;16.50;99.90
5280;DHT22;2663;53.588;10.010;2022-09-09T06:41:39;16.50;99.90
5280;DHT22;2663;53.588;10.010;2022-09-09T06:44:06;16.50;99.90
5280;DHT22;2663;53.588;10.010;2022-09-09T06:46:33;16.60;99.90
5280;DHT22;2663;53.588;10.010;2022-09-09T06:49:00;16.60;99.90
5280;DHT22;2663;53.588;10.010;2022-09-09T06:51:34;16.60;99.90
5280;DHT22;2663;53.588;10.010;2022-09-09T06:54:03;16.70;99.90
5280;DHT22;2663;53.588;10.010;2022-09-09T06:56:34;16.70;99.90
5280;DHT22;2663;53.588;10.010;2022-09-09T06:59:04;16.70;99.90
5280;DHT22;2663;53.588;10.010;2022-09-09T07:01:33;16.70;99.90
5280;DHT22;2663;53.588;10.010;2022-09-09T07:04:01;16.80;99.90
5280;DHT22;2663;53.588;10.010;2022-09-09T07:06:33;16.80;99.90
5280;DHT22;2663;53.588;10.010;2022-09-09T07:09:03;16.90;99.90
5280;DHT22;2663;53.588;10.010;2022-09-09T07:11:33;17.00;99.90
5280;DHT22;2663;53.588;10.010;2022-09-09T07:14:00;17.10;99.90
5280;DHT22;2663;53.588;10.010;2022-09-09T07:16:27;17.30;99.90
5280;DHT22;2663;53.588;10.010;2022-09-09T07:18:55;17.40;99.90
5280;DHT22;2663;53.588;10.010;2022-09-09T07:21:25;17.60;99.90
5280;DHT22;2663;53.588;10.010;2022-09-09T07:23:53;17.50;99.90
5280;DHT22;2663;53.588;10.010;2022-09-09T07:26:23;17.60;99.90
5280;DHT22;2663;53.588;10.010;2022-09-09T07:28:50;17.60;99.90
5280;DHT22;2663;53.588;10.010;2022-09-09T07:31:22;17.60;99.90
5280;DHT22;2663;53.588;10.010;2022-09-09T07:33:50;17.50;99.90
5280;DHT22;2663;53.588;10.010;2022-09-09T07:36:20;17.50;99.90
5280;DHT22;2663;53.588;10.010;2022-09-09T07:38:58;17.50;99.90
5280;DHT22;2663;53.588;10.010;2022-09-09T07:41:40;17.50;99.90
5280;DHT22;2663;53.588;10.010;2022-09-09T07:44:10;17.60;99.90
5280;DHT22;2663;53.588;10.010;2022-09-09T07:46:38;17.70;99.90
5280;DHT22;2663;53.588;10.010;2022-09-09T07:49:09;17.80;99.90
5280;DHT22;2663;53.588;10.010;2022-09-09T07:51:38;18.00;99.90
5280;DHT22;2663;53.588;10.010;2022-09-09T07:54:07;18.00;99.90
5280;DHT22;2663;53.588;10.010;2022-09-09T07:56:36;18.00;99.90
5280;DHT22;2663;53.588;10.010;2022-09-09T07:59:06;18.00;99.90
5280;DHT22;2663;53.588;10.010;2022-09-09T08:01:38;17.80;99.90
5280;DHT22;2663;53.588;10.010;2022-09-09T08:04:11;17.90;99.90
5280;DHT22;2663;53.588;10.010;2022-09-09T08:06:43;17.90;99.90
5280;DHT22;2663;53.588;10.010;2022-09-09T08:09:10;18.00;99.90
5280;DHT22;2663;53.588;10.010;2022-09-09T08:11:39;18.00;99.90
5280;DHT22;2663;53.588;10.010;2022-09-09T08:14:07;18.00;99.90
5280;DHT22;2663;53.588;10.010;2022-09-09T08:16:36;18.00;99.90
5280;DHT22;2663;53.588;10.010;2022-09-09T08:19:04;18.10;99.90
5280;DHT22;2663;53.588;10.010;2022-09-09T08:21:33;18.20;99.90
5280;DHT22;2663;53.588;10.010;2022-09-09T08:24:01;18.30;99.90
5280;DHT22;2663;53.588;10.010;2022-09-09T08:26:36;18.50;99.90
5280;DHT22;2663;53.588;10.010;2022-09-09T08:29:05;18.60;99.90
5280;DHT22;2663;53.588;10.010;2022-09-09T08:31:39;18.50;99.90
5280;DHT22;2663;53.588;10.010;2022-09-09T08:34:07;18.60;99.90
5280;DHT22;2663;53.588;10.010;2022-09-09T08:36:39;18.40;99.90
5280;DHT22;2663;53.588;10.010;2022-09-09T08:39:07;18.40;99.90
5280;DHT22;2663;53.588;10.010;2022-09-09T08:55:35;18.70;99.90
5280;DHT22;2663;53.588;10.010;2022-09-09T09:03:52;18.70;99.90
5280;DHT22;2663;53.588;10.010;2022-09-09T09:07:14;18.80;99.90
5280;DHT22;2663;53.588;10.010;2022-09-09T09:09:21;19.00;99.90
5280;DHT22;2663;53.588;10.010;2022-09-09T09:11:50;19.10;99.90
5280;DHT22;2663;53.588;10.010;2022-09-09T09:14:23;19.10;99.90
5280;DHT22;2663;53.588;10.010;2022-09-09T09:16:56;19.10;99.90
5280;DHT22;2663;53.588;10.010;2022-09-09T09:19:24;19.30;99.90
5280;DHT22;2663;53.588;10.010;2022-09-09T09:27:47;19.60;99.90
5280;DHT22;2663;53.588;10.010;2022-09-09T09:33:18;19.50;98.80
5280;DHT22;2663;53.588;10.010;2022-09-09T09:35:49;19.50;99.60
5280;DHT22;2663;53.588;10.010;2022-09-09T09:38:19;19.60;99.80
5280;DHT22;2663;53.588;10.010;2022-09-09T09:41:06;19.70;99.90
5280;DHT22;2663;53.588;10.010;2022-09-09T09:43:35;19.90;99.90
5280;DHT22;2663;53.588;10.010;2022-09-09T09:46:05;20.00;99.80
5280;DHT22;2663;53.588;10.010;2022-09-09T09:48:44;20.00;99.90
5280;DHT22;2663;53.588;10.010;2022-09-09T09:51:14;20.00;99.90
5280;DHT22;2663;53.588;10.010;2022-09-09T09:53:43;19.90;99.50
5280;DHT22;2663;53.588;10.010;2022-09-09T09:56:11;19.80;98.90
5280;DHT22;2663;53.588;10.010;2022-09-09T09:58:57;19.40;99.30
5280;DHT22;2663;53.588;10.010;2022-09-09T10:01:30;19.50;99.70
5280;DHT22;2663;53.588;10.010;2022-09-09T10:04:13;19.60;99.50
5280;DHT22;2663;53.588;10.010;2022-09-09T10:06:40;19.80;98.80
5280;DHT22;2663;53.588;10.010;2022-09-09T10:09:29;20.00;98.50
5280;DHT22;2663;53.588;10.010;2022-09-09T10:22:39;20.60;98.80
5280;DHT22;2663;53.588;10.010;2022-09-09T10:25:56;20.70;98.40
5280;DHT22;2663;53.588;10.010;2022-09-09T10:31:29;20.50;97.70
5280;DHT22;2663;53.588;10.010;2022-09-09T10:34:18;20.40;97.90
5280;DHT22;2663;53.588;10.010;2022-09-09T10:36:49;20.40;97.70
5280;DHT22;2663;53.588;10.010;2022-09-09T10:39:36;20.30;97.80
5280;DHT22;2663;53.588;10.010;2022-09-09T10:42:16;20.20;97.80
5280;DHT22;2663;53.588;10.010;2022-09-09T10:44:57;20.10;97.40
5280;DHT22;2663;53.588;10.010;2022-09-09T10:50:55;20.50;97.30
5280;DHT22;2663;53.588;10.010;2022-09-09T10:56:10;20.60;96.70
5280;DHT22;2663;53.588;10.010;2022-09-09T10:58:44;20.70;96.80
5280;DHT22;2663;53.588;10.010;2022-09-09T11:01:24;20.70;96.40
5280;DHT22;2663;53.588;10.010;2022-09-09T11:03:56;20.70;96.40
5280;DHT22;2663;53.588;10.010;2022-09-09T11:06:31;20.70;96.40
5280;DHT22;2663;53.588;10.010;2022-09-09T11:09:01;20.70;97.10
5280;DHT22;2663;53.588;10.010;2022-09-09T11:11:41;20.70;96.50
5280;DHT22;2663;53.588;10.010;2022-09-09T11:14:15;20.70;96.30
5280;DHT22;2663;53.588;10.010;2022-09-09T11:16:57;20.70;95.80
5280;DHT22;2663;53.588;10.010;2022-09-09T11:19:41;20.70;95.80
5280;DHT22;2663;53.588;10.010;2022-09-09T11:22:32;20.60;95.90
5280;DHT22;2663;53.588;10.010;2022-09-09T11:33:23;21.20;96.10
5280;DHT22;2663;53.588;10.010;2022-09-09T11:38:51;21.30;96.10
5280;DHT22;2663;53.588;10.010;2022-09-09T11:41:19;21.10;95.60
5280;DHT22;2663;53.588;10.010;2022-09-09T11:43:53;21.20;95.80
5280;DHT22;2663;53.588;10.010;2022-09-09T11:46:22;21.30;96.50
5280;DHT22;2663;53.588;10.010;2022-09-09T11:49:02;21.20;96.70
5280;DHT22;2663;53.588;10.010;2022-09-09T11:51:33;21.20;97.00
5280;DHT22;2663;53.588;10.010;2022-09-09T11:54:02;21.20;97.00
5280;DHT22;2663;53.588;10.010;2022-09-09T11:59:22;21.20;96.60
5280;DHT22;2663;53.588;10.010;2022-09-09T12:02:02;21.00;96.80
5280;DHT22;2663;53.588;10.010;2022-09-09T12:04:41;20.80;97.10
5280;DHT22;2663;53.588;10.010;2022-09-09T12:09:47;21.10;97.20
5280;DHT22;2663;53.588;10.010;2022-09-09T12:12:24;21.30;96.80
5280;DHT22;2663;53.588;10.010;2022-09-09T12:17:28;21.40;96.20
5280;DHT22;2663;53.588;10.010;2022-09-09T12:20:16;21.30;96.40
5280;DHT22;2663;53.588;10.010;2022-09-09T12:25:58;21.00;96.30
5280;DHT22;2663;53.588;10.010;2022-09-09T12:31:35;20.90;96.60
5280;DHT22;2663;53.588;10.010;2022-09-09T12:34:50;20.90;96.70
5280;DHT22;2663;53.588;10.010;2022-09-09T12:37:16;20.90;97.70
5280;DHT22;2663;53.588;10.010;2022-09-09T12:39:51;20.90;98.50
5280;DHT22;2663;53.588;10.010;2022-09-09T12:42:21;20.90;98.90
5280;DHT22;2663;53.588;10.010;2022-09-09T12:44:57;21.00;98.90
5280;DHT22;2663;53.588;10.010;2022-09-09T12:49:56;21.00;99.00
5280;DHT22;2663;53.588;10.010;2022-09-09T12:52:35;21.00;99.10
5280;DHT22;2663;53.588;10.010;2022-09-09T12:55:06;21.00;98.90
5280;DHT22;2663;53.588;10.010;2022-09-09T12:57:39;20.90;99.00
5280;DHT22;2663;53.588;10.010;2022-09-09T13:00:17;20.90;98.70
5280;DHT22;2663;53.588;10.010;2022-09-09T13:05:24;20.60;98.60
5280;DHT22;2663;53.588;10.010;2022-09-09T13:07:52;20.50;98.50
5280;DHT22;2663;53.588;10.010;2022-09-09T13:10:29;20.50;98.30
5280;DHT22;2663;53.588;10.010;2022-09-09T13:13:17;20.40;98.20
5280;DHT22;2663;53.588;10.010;2022-09-09T13:15:56;20.30;98.40
5280;DHT22;2663;53.588;10.010;2022-09-09T13:18:31;20.20;98.90
5280;DHT22;2663;53.588;10.010;2022-09-09T13:21:00;20.10;99.00
5280;DHT22;2663;53.588;10.010;2022-09-09T13:23:33;20.10;99.20
5280;DHT22;2663;53.588;10.010;2022-09-09T13:26:05;20.10;99.20
5280;DHT22;2663;53.588;10.010;2022-09-09T13:28:34;20.10;99.50
5280;DHT22;2663;53.588;10.010;2022-09-09T13:31:05;20.10;99.60
5280;DHT22;2663;53.588;10.010;2022-09-09T13:33:45;20.00;99.90
5280;DHT22;2663;53.588;10.010;2022-09-09T13:36:12;20.00;99.60
5280;DHT22;2663;53.588;10.010;2022-09-09T13:38:54;19.80;99.70
5280;DHT22;2663;53.588;10.010;2022-09-09T13:41:23;19.60;99.90
5280;DHT22;2663;53.588;10.010;2022-09-09T13:43:51;19.30;99.90
5280;DHT22;2663;53.588;10.010;2022-09-09T13:46:36;19.20;99.90
5280;DHT22;2663;53.588;10.010;2022-09-09T13:54:06;19.10;99.90
5280;DHT22;2663;53.588;10.010;2022-09-09T13:56:33;19.20;99.90
5280;DHT22;2663;53.588;10.010;2022-09-09T13:59:01;19.10;99.90
5280;DHT22;2663;53.588;10.010;2022-09-09T14:01:28;19.10;99.90
5280;DHT22;2663;53.588;10.010;2022-09-09T14:03:56;19.00;99.90
5280;DHT22;2663;53.588;10.010;2022-09-09T14:06:23;19.00;99.90
5280;DHT22;2663;53.588;10.010;2022-09-09T14:08:51;18.90;99.90
5280;DHT22;2663;53.588;10.010;2022-09-09T14:11:18;18.90;99.90
5280;DHT22;2663;53.588;10.010;2022-09-09T14:13:45;18.90;99.90
5280;DHT22;2663;53.588;10.010;2022-09-09T14:16:12;18.90;99.90
5280;DHT22;2663;53.588;10.010;2022-09-09T14:18:39;18.80;99.90
5280;DHT22;2663;53.588;10.010;2022-09-09T14:21:05;18.80;99.90
5280;DHT22;2663;53.588;10.010;2022-09-09T14:23:32;18.80;99.90
5280;DHT22;2663;53.588;10.010;2022-09-09T14:25:59;18.70;99.90
5280;DHT22;2663;53.588;10.010;2022-09-09T14:28:25;18.80;99.90
5280;DHT22;2663;53.588;10.010;2022-09-09T14:31:12;18.70;99.90
5280;DHT22;2663;53.588;10.010;2022-09-09T14:33:40;18.70;99.90
5280;DHT22;2663;53.588;10.010;2022-09-09T14:36:07;18.70;99.90
5280;DHT22;2663;53.588;10.010;2022-09-09T14:38:36;18.80;99.90
5280;DHT22;2663;53.588;10.010;2022-09-09T14:41:07;18.70;99.90
5280;DHT22;2663;53.588;10.010;2022-09-09T14:43:37;18.60;99.90
5280;DHT22;2663;53.588;10.010;2022-09-09T14:46:08;18.60;99.90
5280;DHT22;2663;53.588;10.010;2022-09-09T14:48:36;18.60;99.90
5280;DHT22;2663;53.588;10.010;2022-09-09T14:51:17;18.50;99.90
5280;DHT22;2663;53.588;10.010;2022-09-09T14:53:46;18.50;99.90
5280;DHT22;2663;53.588;10.010;2022-09-09T14:56:15;18.50;99.90
5280;DHT22;2663;53.588;10.010;2022-09-09T14:58:42;18.40;99.90
5280;DHT22;2663;53.588;10.010;2022-09-09T15:01:12;18.50;99.90
5280;DHT22;2663;53.588;10.010;2022-09-09T15:03:40;18.40;99.90
5280;DHT22;2663;53.588;10.010;2022-09-09T15:06:08;18.40;99.90
5280;DHT22;2663;53.588;10.010;2022-09-09T15:08:41;18.40;99.90
5280;DHT22;2663;53.588;10.010;2022-09-09T15:11:09;18.40;99.90
5280;DHT22;2663;53.588;10.010;2022-09-09T15:13:38;18.40;99.90
5280;DHT22;2663;53.588;10.010;2022-09-09T15:16:13;18.40;99.90
5280;DHT22;2663;53.588;10.010;2022-09-09T15:18:41;18.40;99.90
5280;DHT22;2663;53.588;10.010;2022-09-09T15:21:13;18.40;99.90
5280;DHT22;2663;53.588;10.010;2022-09-09T15:23:40;18.40;99.90
5280;DHT22;2663;53.588;10.010;2022-09-09T15:26:08;18.40;99.90
5280;DHT22;2663;53.588;10.010;2022-09-09T15:28:36;18.40;99.90
5280;DHT22;2663;53.588;10.010;2022-09-09T15:31:06;18.50;99.90
5280;DHT22;2663;53.588;10.010;2022-09-09T15:33:33;18.50;99.90
5280;DHT22;2663;53.588;10.010;2022-09-09T15:36:13;18.60;99.90
5280;DHT22;2663;53.588;10.010;2022-09-09T15:38:40;18.60;99.90
5280;DHT22;2663;53.588;10.010;2022-09-09T15:41:07;18.60;99.90
5280;DHT22;2663;53.588;10.010;2022-09-09T15:43:33;18.70;99.90
5280;DHT22;2663;53.588;10.010;2022-09-09T15:46:20;18.70;99.90
5280;DHT22;2663;53.588;10.010;2022-09-09T15:48:50;18.70;99.90
5280;DHT22;2663;53.588;10.010;2022-09-09T15:51:20;18.70;99.90
5280;DHT22;2663;53.588;10.010;2022-09-09T15:54:09;18.70;99.90
5280;DHT22;2663;53.588;10.010;2022-09-09T15:56:36;18.60;99.90
5280;DHT22;2663;53.588;10.010;2022-09-09T15:59:03;18.60;99.90
5280;DHT22;2663;53.588;10.010;2022-09-09T16:01:31;18.60;99.90
5280;DHT22;2663;53.588;10.010;2022-09-09T16:03:59;18.60;99.90
5280;DHT22;2663;53.588;10.010;2022-09-09T16:06:28;18.70;99.90
5280;DHT22;2663;53.588;10.010;2022-09-09T16:08:58;18.80;99.90
5280;DHT22;2663;53.588;10.010;2022-09-09T16:11:29;18.80;99.90
5280;DHT22;2663;53.588;10.010;2022-09-09T16:13:57;18.90;99.90
5280;DHT22;2663;53.588;10.010;2022-09-09T16:16:27;18.90;99.90
5280;DHT22;2663;53.588;10.010;2022-09-09T16:18:56;19.00;99.90
5280;DHT22;2663;53.588;10.010;2022-09-09T16:21:28;19.00;99.90
5280;DHT22;2663;53.588;10.010;2022-09-09T16:23:57;19.00;99.90
5280;DHT22;2663;53.588;10.010;2022-09-09T16:26:26;19.00;99.90
5280;DHT22;2663;53.588;10.010;2022-09-09T16:28:53;19.10;99.90
5280;DHT22;2663;53.588;10.010;2022-09-09T16:31:28;19.10;99.90
5280;DHT22;2663;53.588;10.010;2022-09-09T16:33:55;19.10;99.90
5280;DHT22;2663;53.588;10.010;2022-09-09T16:36:24;19.10;99.90
5280;DHT22;2663;53.588;10.010;2022-09-09T16:38:58;19.10;99.90
5280;DHT22;2663;53.588;10.010;2022-09-09T16:41:27;19.10;99.90
5280;DHT22;2663;53.588;10.010;2022-09-09T16:44:02;19.10;99.90
5280;DHT22;2663;53.588;10.010;2022-09-09T16:46:30;19.10;99.90
5280;DHT22;2663;53.588;10.010;2022-09-09T16:48:59;19.10;99.90
5280;DHT22;2663;53.588;10.010;2022-09-09T16:51:28;19.10;99.90
5280;DHT22;2663;53.588;10.010;2022-09-09T16:53:58;19.10;99.90
5280;DHT22;2663;53.588;10.010;2022-09-09T16:56:27;19.00;99.90
5280;DHT22;2663;53.588;10.010;2022-09-09T16:58:56;19.00;99.90
5280;DHT22;2663;53.588;10.010;2022-09-09T17:01:25;18.90;99.90
5280;DHT22;2663;53.588;10.010;2022-09-09T17:03:56;18.90;99.90
5280;DHT22;2663;53.588;10.010;2022-09-09T17:06:32;18.90;99.90
5280;DHT22;2663;53.588;10.010;2022-09-09T17:09:05;18.80;99.90
5280;DHT22;2663;53.588;10.010;2022-09-09T17:11:32;18.80;99.90
5280;DHT22;2663;53.588;10.010;2022-09-09T17:13:59;18.80;99.90
5280;DHT22;2663;53.588;10.010;2022-09-09T17:16:29;18.70;99.90
5280;DHT22;2663;53.588;10.010;2022-09-09T17:18:57;18.60;99.90
5280;DHT22;2663;53.588;10.010;2022-09-09T17:21:26;18.60;99.90
5280;DHT22;2663;53.588;10.010;2022-09-09T17:23:53;18.60;99.90
5280;DHT22;2663;53.588;10.010;2022-09-09T17:26:23;18.50;99.90
5280;DHT22;2663;53.588;10.010;2022-09-09T17:28:49;18.50;99.90
5280;DHT22;2663;53.588;10.010;2022-09-09T17:31:19;18.50;99.90
5280;DHT22;2663;53.588;10.010;2022-09-09T17:33:49;18.40;99.90
5280;DHT22;2663;53.588;10.010;2022-09-09T17:36:25;18.40;99.90
5280;DHT22;2663;53.588;10.010;2022-09-09T17:38:52;18.30;99.90
5280;DHT22;2663;53.588;10.010;2022-09-09T17:41:25;18.30;99.90
5280;DHT22;2663;53.588;10.010;2022-09-09T17:43:52;18.30;99.90
5280;DHT22;2663;53.588;10.010;2022-09-09T17:46:28;18.30;99.90
5280;DHT22;2663;53.588;10.010;2022-09-09T17:48:57;18.40;99.90
5280;DHT22;2663;53.588;10.010;2022-09-09T17:51:27;18.30;99.90
5280;DHT22;2663;53.588;10.010;2022-09-09T17:53:58;18.20;99.90
5280;DHT22;2663;53.588;10.010;2022-09-09T17:56:27;18.20;99.90
5280;DHT22;2663;53.588;10.010;2022-09-09T17:58:54;18.10;99.90
5280;DHT22;2663;53.588;10.010;2022-09-09T18:01:23;18.10;99.90
5280;DHT22;2663;53.588;10.010;2022-09-09T18:03:50;18.10;99.90
5280;DHT22;2663;53.588;10.010;2022-09-09T18:06:20;18.10;99.90